Time;durP1;ratioP1;P1;durP2;ratioP2;P2;SDS_P1;SDS_P2;PMS_P1;PMS_P2;Temp;Humidity;BMP_temperature;BMP_pressure;BME280_temperature;BME280_humidity;BME280_pressure;Samples;Min_cycle;Max_cycle;Signal;HPM_P1;HPM_P2
2024/02/26 00:00:30;;;;;;;9.98;5.30;;;4.20;99.90;;;;;;4976003;28;20027;-90
2024/02/26 00:02:56;;;;;;;13.35;5.28;;;4.20;99.90;;;;;;4973343;28;20472;-90
2024/02/26 00:05:21;;;;;;;8.20;5.13;;;4.20;99.90;;;;;;4975621;28;20073;-89
2024/02/26 00:07:48;;;;;;;11.38;5.05;;;4.10;99.90;;;;;;4973539;28;20030;-90
2024/02/26 00:10:15;;;;;;;11.30;5.00;;;4.10;99.90;;;;;;4976551;28;20125;-91
2024/02/26 00:12:41;;;;;;;8.18;4.40;;;4.10;99.90;;;;;;4976104;28;20122;-90
2024/02/26 00:15:08;;;;;;;7.15;4.55;;;4.10;99.90;;;;;;4979011;28;20026;-90
2024/02/26 00:17:34;;;;;;;10.75;4.97;;;4.10;99.90;;;;;;4973930;28;20023;-90
2024/02/26 00:20:00;;;;;;;8.68;4.10;;;4.00;99.90;;;;;;4996494;28;20361;-91
2024/02/26 00:22:26;;;;;;;8.88;5.05;;;4.00;99.90;;;;;;4974304;28;20113;-90
2024/02/26 00:24:52;;;;;;;6.10;3.45;;;4.00;99.90;;;;;;4978661;28;20121;-91
2024/02/26 00:27:18;;;;;;;12.23;4.78;;;4.00;99.90;;;;;;4978655;28;20033;-92
2024/02/26 00:29:44;;;;;;;9.40;4.50;;;4.00;99.90;;;;;;4978865;28;20034;-90
2024/02/26 00:32:09;;;;;;;7.72;2.90;;;4.00;99.90;;;;;;4971905;28;20045;-91
2024/02/26 00:34:36;;;;;;;10.90;4.72;;;4.00;99.90;;;;;;4976521;28;20476;-91
2024/02/26 00:37:02;;;;;;;14.73;4.45;;;3.90;99.90;;;;;;4968300;28;20030;-90
2024/02/26 00:39:28;;;;;;;8.35;4.38;;;3.90;99.90;;;;;;4976958;28;20027;-89
2024/02/26 00:41:53;;;;;;;7.32;4.28;;;4.00;99.90;;;;;;4959086;28;20015;-91
2024/02/26 00:44:19;;;;;;;9.30;4.25;;;4.00;99.90;;;;;;4959739;28;20125;-91
2024/02/26 00:46:45;;;;;;;10.98;2.85;;;4.00;99.90;;;;;;4965177;28;20116;-89
2024/02/26 00:49:11;;;;;;;6.53;2.95;;;4.10;99.90;;;;;;4975850;28;20309;-89
2024/02/26 00:51:36;;;;;;;7.97;4.13;;;4.10;99.90;;;;;;4977180;28;20484;-90
2024/02/26 00:54:02;;;;;;;9.43;3.55;;;4.10;99.90;;;;;;4975094;28;20093;-89
2024/02/26 00:56:28;;;;;;;7.13;3.78;;;4.10;99.90;;;;;;4959140;28;20027;-90
2024/02/26 00:58:53;;;;;;;8.23;3.25;;;4.10;99.90;;;;;;4959062;28;20062;-90
2024/02/26 01:01:19;;;;;;;7.35;2.40;;;4.10;99.90;;;;;;4960772;28;20106;-90
2024/02/26 01:03:45;;;;;;;13.20;3.50;;;4.10;99.90;;;;;;4975066;28;20135;-90
2024/02/26 01:06:11;;;;;;;11.73;2.72;;;4.10;99.90;;;;;;4975097;28;20165;-89
2024/02/26 01:08:37;;;;;;;7.30;3.45;;;4.10;99.90;;;;;;4974631;28;20114;-89
2024/02/26 01:11:03;;;;;;;11.60;3.75;;;4.00;99.90;;;;;;4978320;28;20412;-89
2024/02/26 01:13:29;;;;;;;8.52;3.53;;;4.00;99.90;;;;;;4977091;28;20058;-89
2024/02/26 01:15:55;;;;;;;12.05;5.38;;;4.00;99.90;;;;;;4977324;28;20092;-89
2024/02/26 01:18:21;;;;;;;6.97;3.13;;;3.90;99.90;;;;;;4974997;28;20018;-89
2024/02/26 01:20:46;;;;;;;14.43;3.55;;;3.90;99.90;;;;;;4976904;28;20030;-89
2024/02/26 01:23:12;;;;;;;6.25;2.45;;;3.80;99.90;;;;;;4977743;28;20026;-90
2024/02/26 01:25:39;;;;;;;9.48;3.13;;;3.80;99.90;;;;;;4977597;28;20030;-90
2024/02/26 01:28:05;;;;;;;8.98;3.40;;;3.70;99.90;;;;;;4975998;28;20025;-88
2024/02/26 01:30:31;;;;;;;9.38;3.72;;;3.70;99.90;;;;;;4977497;28;20035;-89
2024/02/26 01:32:57;;;;;;;9.50;4.15;;;3.70;99.90;;;;;;4976779;28;20040;-88
2024/02/26 01:35:22;;;;;;;7.93;3.53;;;3.70;99.90;;;;;;4977326;28;20464;-91
2024/02/26 01:37:48;;;;;;;9.40;3.30;;;3.70;99.90;;;;;;4976468;28;20443;-89
2024/02/26 01:40:19;;;;;;;4.68;2.10;;;3.70;99.90;;;;;;4977240;28;20030;-89
2024/02/26 01:42:45;;;;;;;;;;;3.70;99.90;;;;;;4975277;28;20026;-88
2024/02/26 01:45:21;;;;;;;4.95;2.83;;;3.70;99.90;;;;;;4976994;28;19917;-90
2024/02/26 01:47:50;;;;;;;2.35;1.50;;;3.60;99.90;;;;;;4991547;28;20029;-89
2024/02/26 01:50:16;;;;;;;5.80;2.47;;;3.70;99.90;;;;;;4977098;28;20050;-90
2024/02/26 01:52:42;;;;;;;9.57;2.47;;;3.70;99.90;;;;;;4976205;28;20113;-89
2024/02/26 01:55:08;;;;;;;9.05;2.70;;;3.70;99.90;;;;;;4976892;28;20524;-90
2024/02/26 01:57:34;;;;;;;11.05;2.28;;;3.70;99.90;;;;;;4977087;28;20084;-90
2024/02/26 02:00:00;;;;;;;8.18;2.28;;;3.70;99.90;;;;;;4977280;28;20400;-90
2024/02/26 02:02:26;;;;;;;13.32;2.78;;;3.70;99.90;;;;;;4970293;28;20073;-89
2024/02/26 02:04:52;;;;;;;7.90;2.47;;;3.70;99.90;;;;;;4978069;28;20038;-91
2024/02/26 02:07:20;;;;;;;7.20;3.13;;;3.60;99.90;;;;;;4978858;28;20023;-90
2024/02/26 02:09:46;;;;;;;8.25;2.45;;;3.60;99.90;;;;;;4976746;28;20025;-90
2024/02/26 02:12:11;;;;;;;9.57;2.50;;;3.60;99.90;;;;;;4971947;28;20031;-91
2024/02/26 02:14:37;;;;;;;3.38;1.80;;;3.60;99.90;;;;;;4976143;28;20049;-90
2024/02/26 02:17:03;;;;;;;5.65;2.10;;;3.50;99.90;;;;;;4992372;28;20061;-89
2024/02/26 02:19:28;;;;;;;12.50;2.35;;;3.50;99.90;;;;;;4976078;28;20081;-90
2024/02/26 02:21:54;;;;;;;11.05;2.58;;;3.50;99.90;;;;;;4970575;28;20089;-89
2024/02/26 02:24:20;;;;;;;13.13;2.58;;;3.50;99.90;;;;;;4990839;28;20034;-89
2024/02/26 02:26:46;;;;;;;9.38;2.60;;;3.50;99.90;;;;;;4994193;28;20018;-90
2024/02/26 02:29:14;;;;;;;7.22;2.83;;;3.50;99.90;;;;;;4976925;28;20030;-90
2024/02/26 02:31:40;;;;;;;6.22;2.40;;;3.50;99.90;;;;;;4974527;28;20038;-90
2024/02/26 02:34:05;;;;;;;7.13;2.15;;;3.50;99.90;;;;;;4976456;28;20030;-91
2024/02/26 02:36:31;;;;;;;6.82;1.83;;;3.50;99.90;;;;;;4976749;28;20022;-91
2024/02/26 02:38:57;;;;;;;10.55;2.92;;;3.40;99.90;;;;;;4977289;28;20412;-88
2024/02/26 02:41:22;;;;;;;6.68;1.92;;;3.40;99.90;;;;;;4995016;28;20037;-89
2024/02/26 02:43:48;;;;;;;6.72;2.35;;;3.40;99.90;;;;;;4980132;28;20383;-89
2024/02/26 02:46:14;;;;;;;11.20;2.88;;;3.40;99.90;;;;;;4977721;28;20487;-89
2024/02/26 02:48:41;;;;;;;11.00;2.17;;;3.40;99.90;;;;;;4977016;28;20023;-89
2024/02/26 02:51:07;;;;;;;5.63;3.25;;;3.30;99.90;;;;;;4975870;28;20038;-90
2024/02/26 02:53:33;;;;;;;7.60;2.40;;;3.30;99.90;;;;;;4976588;28;20021;-89
2024/02/26 02:55:58;;;;;;;2.38;1.38;;;3.30;99.90;;;;;;4993426;28;20460;-90
2024/02/26 02:58:24;;;;;;;9.70;2.38;;;3.30;99.90;;;;;;4972312;28;20118;-89
2024/02/26 03:00:49;;;;;;;6.32;2.42;;;3.30;99.90;;;;;;4975745;28;20029;-89
2024/02/26 03:03:15;;;;;;;7.78;2.58;;;3.20;99.90;;;;;;4976827;28;20034;-89
2024/02/26 03:05:41;;;;;;;4.30;2.30;;;3.20;99.90;;;;;;4976813;28;20494;-88
2024/02/26 03:08:07;;;;;;;7.40;2.75;;;3.20;99.90;;;;;;4976607;28;20507;-91
2024/02/26 03:10:33;;;;;;;6.13;1.95;;;3.20;99.90;;;;;;4976322;28;20034;-89
2024/02/26 03:12:59;;;;;;;7.43;2.33;;;3.20;99.90;;;;;;4975396;28;20337;-89
2024/02/26 03:15:24;;;;;;;4.35;2.22;;;3.20;99.90;;;;;;4978142;28;20029;-88
2024/02/26 03:17:50;;;;;;;6.85;2.05;;;3.20;99.90;;;;;;4979207;28;20022;-90
2024/02/26 03:20:19;;;;;;;5.15;1.75;;;3.20;99.90;;;;;;4997715;28;20523;-90
2024/02/26 03:22:45;;;;;;;8.80;2.03;;;3.10;99.90;;;;;;4979942;28;20026;-89
2024/02/26 03:25:11;;;;;;;5.13;1.65;;;3.20;99.90;;;;;;4981322;28;20033;-90
2024/02/26 03:27:36;;;;;;;3.47;1.52;;;3.20;99.90;;;;;;4978098;28;20058;-90
2024/02/26 03:30:03;;;;;;;3.40;1.75;;;3.20;99.90;;;;;;4976184;28;20023;-89
2024/02/26 03:32:29;;;;;;;2.88;1.23;;;3.20;99.90;;;;;;4976064;28;20487;-89
2024/02/26 03:34:55;;;;;;;6.68;2.20;;;3.20;99.90;;;;;;4975480;28;20033;-88
2024/02/26 03:37:21;;;;;;;4.75;1.90;;;3.20;99.90;;;;;;4973526;28;20105;-89
2024/02/26 03:39:47;;;;;;;6.43;1.83;;;3.20;99.90;;;;;;4976210;28;20134;-89
2024/02/26 03:42:13;;;;;;;1.85;1.30;;;3.10;99.90;;;;;;4975579;28;20527;-89
2024/02/26 03:44:38;;;;;;;11.35;1.60;;;3.10;99.90;;;;;;4978695;28;20053;-90
2024/02/26 03:47:04;;;;;;;6.38;1.60;;;3.10;99.90;;;;;;4980418;28;20387;-89
2024/02/26 03:49:30;;;;;;;8.48;1.35;;;3.10;99.90;;;;;;4980362;28;20054;-88
2024/02/26 03:51:56;;;;;;;10.13;1.83;;;3.20;99.90;;;;;;4980107;28;20488;-90
2024/02/26 03:54:22;;;;;;;2.92;1.23;;;3.10;99.90;;;;;;4979512;28;20019;-91
2024/02/26 03:56:47;;;;;;;7.38;1.50;;;3.20;99.90;;;;;;4980280;28;20033;-89
2024/02/26 03:59:13;;;;;;;11.07;2.13;;;3.20;99.90;;;;;;4980479;28;20038;-89
2024/02/26 04:01:39;;;;;;;8.68;2.22;;;3.20;99.90;;;;;;4979348;28;20026;-89
2024/02/26 04:04:06;;;;;;;8.05;2.15;;;3.10;99.90;;;;;;4977215;28;20084;-89
2024/02/26 04:06:31;;;;;;;5.47;2.17;;;3.10;99.90;;;;;;4980421;28;20038;-91
2024/02/26 04:08:57;;;;;;;9.77;2.15;;;3.10;99.90;;;;;;4979619;28;20539;-89
2024/02/26 04:11:23;;;;;;;6.97;1.92;;;3.10;99.90;;;;;;4980061;28;20042;-89
2024/02/26 04:13:52;;;;;;;11.30;3.65;;;3.10;99.90;;;;;;4980159;28;20019;-89
2024/02/26 04:16:18;;;;;;;10.13;2.40;;;3.00;99.90;;;;;;4977795;28;20041;-89
2024/02/26 04:18:43;;;;;;;9.10;2.72;;;3.00;99.90;;;;;;4980446;28;20026;-89
2024/02/26 04:21:09;;;;;;;12.27;2.28;;;3.10;99.90;;;;;;4983601;28;20037;-89
2024/02/26 04:23:35;;;;;;;7.75;2.17;;;3.10;99.90;;;;;;4979749;28;20053;-89
2024/02/26 04:26:01;;;;;;;3.50;1.85;;;3.00;99.90;;;;;;4980136;28;20027;-89
2024/02/26 04:28:28;;;;;;;10.30;2.30;;;3.10;99.90;;;;;;4980207;28;20510;-88
2024/02/26 04:30:55;;;;;;;7.72;2.00;;;3.10;99.90;;;;;;4979871;28;20129;-89
2024/02/26 04:33:20;;;;;;;8.50;1.80;;;3.10;99.90;;;;;;4978760;28;20077;-89
2024/02/26 04:35:46;;;;;;;10.13;2.45;;;3.10;99.90;;;;;;4979768;28;20034;-89
2024/02/26 04:38:12;;;;;;;8.20;2.15;;;3.10;99.90;;;;;;4979617;28;20113;-90
2024/02/26 04:40:37;;;;;;;5.90;1.42;;;3.10;99.90;;;;;;4979361;28;20535;-90
2024/02/26 04:43:04;;;;;;;6.13;2.40;;;3.20;99.90;;;;;;4978428;28;20033;-89
2024/02/26 04:45:30;;;;;;;4.85;1.88;;;3.10;99.90;;;;;;4980719;28;20046;-89
2024/02/26 04:47:55;;;;;;;6.13;2.90;;;3.10;99.90;;;;;;4979491;28;20037;-90
2024/02/26 04:50:21;;;;;;;4.45;2.47;;;3.10;99.90;;;;;;4977030;28;20065;-89
2024/02/26 04:52:47;;;;;;;8.02;2.22;;;3.10;99.90;;;;;;4975326;28;20057;-89
2024/02/26 04:55:12;;;;;;;11.88;2.60;;;3.20;99.90;;;;;;4979114;28;20479;-90
2024/02/26 04:57:38;;;;;;;10.52;2.38;;;3.10;99.90;;;;;;4979776;28;20364;-90
2024/02/26 05:00:05;;;;;;;7.50;2.80;;;3.10;99.90;;;;;;4979202;28;20076;-91
2024/02/26 05:02:33;;;;;;;7.57;2.50;;;3.10;99.90;;;;;;4982201;28;20031;-89
2024/02/26 05:04:59;;;;;;;9.32;2.92;;;3.10;99.90;;;;;;4990413;28;20018;-88
2024/02/26 05:07:24;;;;;;;8.88;2.40;;;3.10;99.90;;;;;;4988673;28;20026;-89
2024/02/26 05:09:50;;;;;;;7.00;2.08;;;3.10;99.90;;;;;;4990899;28;20026;-89
2024/02/26 05:12:16;;;;;;;12.05;2.80;;;3.10;99.90;;;;;;4990133;28;20054;-90
2024/02/26 05:14:42;;;;;;;6.82;2.42;;;3.10;99.90;;;;;;4991900;28;20134;-90
2024/02/26 05:17:08;;;;;;;14.00;2.55;;;3.10;99.90;;;;;;4986569;28;20062;-90
2024/02/26 05:19:34;;;;;;;6.85;1.88;;;3.10;99.90;;;;;;4991144;28;20030;-90
2024/02/26 05:21:59;;;;;;;6.65;2.33;;;3.00;99.90;;;;;;4991373;28;20030;-89
2024/02/26 05:24:25;;;;;;;6.90;2.50;;;3.00;99.90;;;;;;4991357;28;20373;-89
2024/02/26 05:26:51;;;;;;;3.65;1.88;;;3.00;99.90;;;;;;4991820;28;20022;-90
2024/02/26 05:29:17;;;;;;;6.93;2.38;;;3.00;99.90;;;;;;4987072;28;20457;-89
2024/02/26 05:31:42;;;;;;;7.75;2.40;;;3.10;99.90;;;;;;4980468;28;20439;-90
2024/02/26 05:34:08;;;;;;;8.23;2.53;;;3.10;99.90;;;;;;4981656;28;20034;-91
2024/02/26 05:36:34;;;;;;;6.28;2.47;;;3.10;99.90;;;;;;4982702;28;20041;-89
2024/02/26 05:39:01;;;;;;;10.10;3.00;;;3.10;99.90;;;;;;4977751;28;20419;-89
2024/02/26 05:41:27;;;;;;;10.15;2.85;;;3.10;99.90;;;;;;4981106;28;20050;-91
2024/02/26 05:43:53;;;;;;;6.50;3.03;;;3.10;99.90;;;;;;4978544;28;20022;-92
2024/02/26 05:46:20;;;;;;;6.03;2.83;;;3.20;99.90;;;;;;4982907;28;20392;-91
2024/02/26 05:48:51;;;;;;;4.50;2.50;;;3.20;99.90;;;;;;4983066;28;20042;-92
2024/02/26 05:51:16;;;;;;;8.25;3.28;;;3.20;99.90;;;;;;4982484;28;20034;-92
2024/02/26 05:53:42;;;;;;;10.82;4.25;;;3.20;99.90;;;;;;4978201;28;20098;-91
2024/02/26 05:56:08;;;;;;;8.65;2.63;;;3.20;99.90;;;;;;4981106;28;20026;-91
2024/02/26 05:58:34;;;;;;;5.55;2.17;;;3.20;99.90;;;;;;4980652;28;20046;-92
2024/02/26 06:01:02;;;;;;;7.30;3.13;;;3.20;99.90;;;;;;4980714;28;20023;-92
2024/02/26 06:03:28;;;;;;;11.70;4.47;;;3.20;99.90;;;;;;4979514;28;20033;-91
2024/02/26 06:05:53;;;;;;;5.07;2.85;;;3.20;99.90;;;;;;4981804;28;20094;-92
2024/02/26 06:08:19;;;;;;;10.05;3.50;;;3.10;99.90;;;;;;4984015;28;20031;-91
2024/02/26 06:10:45;;;;;;;6.30;3.63;;;3.10;99.90;;;;;;4981616;28;20041;-90
2024/02/26 06:13:11;;;;;;;8.00;3.75;;;3.20;99.90;;;;;;4981563;28;20027;-93
2024/02/26 06:15:36;;;;;;;8.65;3.00;;;3.10;99.90;;;;;;4999427;28;20069;-91
2024/02/26 06:18:02;;;;;;;12.63;3.45;;;3.10;99.90;;;;;;4981420;28;20018;-91
2024/02/26 06:20:28;;;;;;;6.57;2.65;;;3.20;99.90;;;;;;4982782;28;20092;-91
2024/02/26 06:22:54;;;;;;;5.57;1.85;;;3.10;99.90;;;;;;4978128;28;20027;-90
2024/02/26 06:25:20;;;;;;;6.72;2.88;;;3.10;99.90;;;;;;4980556;28;20522;-92
2024/02/26 06:27:45;;;;;;;6.20;2.47;;;3.10;99.90;;;;;;4980707;28;20048;-90
2024/02/26 06:30:11;;;;;;;4.85;2.10;;;3.10;99.90;;;;;;4981032;28;20042;-90
2024/02/26 06:32:38;;;;;;;5.15;1.92;;;3.10;99.90;;;;;;4995250;28;20030;-91
2024/02/26 06:35:07;;;;;;;5.90;2.33;;;3.10;99.90;;;;;;4983758;28;20181;-92
2024/02/26 06:37:33;;;;;;;6.63;2.42;;;3.20;99.90;;;;;;4985938;28;20030;-92
2024/02/26 06:39:59;;;;;;;5.15;2.17;;;3.20;99.90;;;;;;4981099;28;20492;-90
2024/02/26 06:42:25;;;;;;;5.72;2.40;;;3.20;99.90;;;;;;4979711;28;20026;-92
2024/02/26 06:44:51;;;;;;;6.28;2.78;;;3.20;99.90;;;;;;4978581;28;20046;-90
2024/02/26 06:47:17;;;;;;;9.20;3.95;;;3.20;99.90;;;;;;4978470;28;20153;-90
2024/02/26 06:49:43;;;;;;;12.40;3.65;;;3.20;99.90;;;;;;4978193;28;20399;-90
2024/02/26 06:52:09;;;;;;;10.57;3.70;;;3.30;99.90;;;;;;4977697;28;20034;-90
2024/02/26 06:54:35;;;;;;;9.38;4.00;;;3.30;99.90;;;;;;4975635;28;20033;-89
2024/02/26 06:57:00;;;;;;;16.38;4.93;;;3.30;99.90;;;;;;4976081;28;20026;-90
2024/02/26 06:59:26;;;;;;;5.93;4.10;;;3.30;99.90;;;;;;4972461;28;20099;-90
2024/02/26 07:01:52;;;;;;;9.65;4.30;;;3.40;99.90;;;;;;4974090;28;20342;-89
2024/02/26 07:04:17;;;;;;;8.93;3.95;;;3.30;99.90;;;;;;4975123;28;20046;-91
2024/02/26 07:06:43;;;;;;;9.02;3.10;;;3.40;99.90;;;;;;4972364;28;20030;-91
2024/02/26 07:09:12;;;;;;;9.93;3.15;;;3.40;99.90;;;;;;4978542;28;20030;-90
2024/02/26 07:11:41;;;;;;;9.50;3.42;;;3.40;99.90;;;;;;4973248;28;20112;-90
2024/02/26 07:14:08;;;;;;;4.83;3.17;;;3.40;99.90;;;;;;4974038;28;20030;-90
2024/02/26 07:16:34;;;;;;;8.07;4.07;;;3.40;99.90;;;;;;4976560;28;20034;-91
2024/02/26 07:18:59;;;;;;;9.07;3.40;;;3.40;99.90;;;;;;4978023;28;20029;-90
2024/02/26 07:21:25;;;;;;;7.30;3.00;;;3.40;99.90;;;;;;4978485;28;20030;-91
2024/02/26 07:23:52;;;;;;;10.48;3.45;;;3.40;99.90;;;;;;4980155;28;20576;-92
2024/02/26 07:26:19;;;;;;;10.15;3.22;;;3.40;99.90;;;;;;4980086;28;20073;-90
2024/02/26 07:28:45;;;;;;;8.00;3.45;;;3.30;99.90;;;;;;4980760;28;20014;-90
2024/02/26 07:31:13;;;;;;;8.98;2.80;;;3.30;99.90;;;;;;4977935;28;20089;-89
2024/02/26 07:33:39;;;;;;;6.70;3.33;;;3.30;99.90;;;;;;4980464;28;20026;-90
2024/02/26 07:36:05;;;;;;;8.38;3.28;;;3.30;99.90;;;;;;4980124;28;20499;-90
2024/02/26 07:38:30;;;;;;;7.72;2.40;;;3.30;99.90;;;;;;4976198;28;20427;-88
2024/02/26 07:40:56;;;;;;;6.80;2.60;;;3.30;99.90;;;;;;4979677;28;20039;-89
2024/02/26 07:43:22;;;;;;;8.57;2.65;;;3.30;99.90;;;;;;4979771;28;20029;-89
2024/02/26 07:45:48;;;;;;;5.45;2.25;;;3.30;99.90;;;;;;4977251;28;20046;-90
2024/02/26 07:48:14;;;;;;;9.25;2.58;;;3.30;99.90;;;;;;4974005;28;20030;-89
2024/02/26 07:50:40;;;;;;;11.20;2.13;;;3.30;99.90;;;;;;4976774;28;20034;-92
2024/02/26 07:53:06;;;;;;;9.88;2.40;;;3.30;99.90;;;;;;4978881;28;20031;-89
2024/02/26 07:55:32;;;;;;;7.32;2.60;;;3.30;99.90;;;;;;4977809;28;20490;-90
2024/02/26 07:57:57;;;;;;;8.07;2.80;;;3.40;99.90;;;;;;4978126;28;20058;-89
2024/02/26 08:00:23;;;;;;;8.93;2.65;;;3.30;99.90;;;;;;4978205;28;20245;-90
2024/02/26 08:02:49;;;;;;;10.25;2.30;;;3.30;99.90;;;;;;4972843;28;20034;-90
2024/02/26 08:05:15;;;;;;;6.85;2.28;;;3.40;99.90;;;;;;4977233;28;20039;-91
2024/02/26 08:07:41;;;;;;;6.07;2.10;;;3.40;99.90;;;;;;4977376;28;20019;-90
2024/02/26 08:10:07;;;;;;;6.28;2.15;;;3.40;99.90;;;;;;4978762;28;20484;-91
2024/02/26 08:12:33;;;;;;;8.40;2.05;;;3.40;99.90;;;;;;4976382;28;20061;-91
2024/02/26 08:15:00;;;;;;;7.18;2.05;;;3.40;99.90;;;;;;4977281;28;20491;-88
2024/02/26 08:17:27;;;;;;;8.20;2.08;;;3.40;99.90;;;;;;4976670;28;20098;-89
2024/02/26 08:19:52;;;;;;;11.00;2.42;;;3.50;99.90;;;;;;4977889;28;20030;-91
2024/02/26 08:22:18;;;;;;;6.30;2.25;;;3.50;99.90;;;;;;4979636;28;20037;-91
2024/02/26 08:24:44;;;;;;;9.85;3.25;;;3.50;99.90;;;;;;4980259;28;20035;-91
2024/02/26 08:27:10;;;;;;;5.03;2.35;;;3.50;99.90;;;;;;4982663;28;20089;-90
2024/02/26 08:29:36;;;;;;;12.13;3.00;;;3.60;99.90;;;;;;4981250;28;20026;-90
2024/02/26 08:32:02;;;;;;;3.90;1.90;;;3.60;99.90;;;;;;4975377;28;20054;-90
2024/02/26 08:34:27;;;;;;;6.50;1.85;;;3.70;99.90;;;;;;4997079;28;20498;-88
2024/02/26 08:36:53;;;;;;;11.70;3.35;;;3.80;99.90;;;;;;4979500;28;20030;-89
2024/02/26 08:39:20;;;;;;;4.63;2.40;;;3.80;99.90;;;;;;4978785;28;20030;-91
2024/02/26 08:41:46;;;;;;;7.60;2.42;;;3.90;99.90;;;;;;4978947;28;20034;-91
2024/02/26 08:44:11;;;;;;;5.47;2.13;;;3.90;99.90;;;;;;4979870;28;20037;-90
2024/02/26 08:46:37;;;;;;;8.60;3.25;;;4.00;99.90;;;;;;4979501;28;20100;-90
2024/02/26 08:49:03;;;;;;;10.52;2.60;;;4.00;99.90;;;;;;4981366;28;20507;-89
2024/02/26 08:51:29;;;;;;;8.05;2.45;;;4.10;99.90;;;;;;4969485;28;20035;-90
2024/02/26 08:53:55;;;;;;;4.05;1.88;;;4.10;99.90;;;;;;4977436;28;20369;-90
2024/02/26 08:56:21;;;;;;;9.40;2.00;;;4.10;99.90;;;;;;4978814;28;20041;-91
2024/02/26 08:58:48;;;;;;;7.55;2.00;;;4.20;99.90;;;;;;4978915;28;20057;-89
2024/02/26 09:01:15;;;;;;;3.65;1.15;;;4.20;99.90;;;;;;4978011;28;20034;-90
2024/02/26 09:03:40;;;;;;;4.13;1.80;;;4.20;99.90;;;;;;4974334;28;20085;-89
2024/02/26 09:06:09;;;;;;;5.68;1.77;;;4.30;99.90;;;;;;4974088;28;20031;-89
2024/02/26 09:08:37;;;;;;;8.60;2.10;;;4.30;99.90;;;;;;4976130;28;20037;-90
2024/02/26 09:11:03;;;;;;;6.70;1.80;;;4.40;99.90;;;;;;4978661;28;20085;-88
2024/02/26 09:13:29;;;;;;;7.35;1.45;;;4.50;99.90;;;;;;4978474;28;20034;-90
2024/02/26 09:15:55;;;;;;;7.18;1.70;;;4.60;99.90;;;;;;4978051;28;20102;-89
2024/02/26 09:18:20;;;;;;;4.18;1.58;;;4.60;99.90;;;;;;4977587;28;20038;-89
2024/02/26 09:20:46;;;;;;;5.93;1.83;;;4.70;99.90;;;;;;4978634;28;20074;-90
2024/02/26 09:23:12;;;;;;;4.57;1.55;;;4.80;99.90;;;;;;4978614;28;20187;-90
2024/02/26 09:25:38;;;;;;;4.45;1.40;;;4.90;99.90;;;;;;4984305;28;20022;-92
2024/02/26 09:28:04;;;;;;;2.05;0.90;;;4.90;99.90;;;;;;4979141;28;20048;-91
2024/02/26 09:30:29;;;;;;;2.30;1.15;;;5.00;99.90;;;;;;4975851;28;20038;-91
2024/02/26 09:32:55;;;;;;;6.63;1.70;;;5.10;99.90;;;;;;4971079;28;20034;-90
2024/02/26 09:35:21;;;;;;;4.05;2.10;;;5.20;99.90;;;;;;4976748;28;20579;-89
2024/02/26 09:37:48;;;;;;;2.00;1.20;;;5.30;99.90;;;;;;4967087;28;20118;-91
2024/02/26 09:40:14;;;;;;;3.60;1.20;;;5.30;99.90;;;;;;4975394;28;20105;-89
2024/02/26 09:42:44;;;;;;;8.25;2.33;;;5.40;99.90;;;;;;4975341;28;20424;-89
2024/02/26 09:45:18;;;;;;;2.80;1.13;;;5.40;99.90;;;;;;4977883;28;20042;-90
2024/02/26 09:47:45;;;;;;;2.33;1.05;;;5.50;99.90;;;;;;4970366;28;20177;-92
2024/02/26 09:50:13;;;;;;;4.65;1.17;;;5.70;99.90;;;;;;4974781;28;20018;-91
2024/02/26 09:52:42;;;;;;;3.60;1.05;;;5.70;99.90;;;;;;4982897;28;20034;-90
2024/02/26 09:55:09;;;;;;;5.35;1.55;;;5.80;99.90;;;;;;4977305;28;20483;-91
2024/02/26 09:57:37;;;;;;;2.33;1.02;;;5.90;99.90;;;;;;4975065;28;20026;-90
2024/02/26 10:00:05;;;;;;;4.20;1.85;;;6.00;99.90;;;;;;4983940;28;20034;-90
2024/02/26 10:02:32;;;;;;;5.47;1.00;;;6.10;99.90;;;;;;4979282;28;20057;-91
2024/02/26 10:05:04;;;;;;;4.82;1.10;;;6.20;99.90;;;;;;4981627;28;20027;-89
2024/02/26 10:07:31;;;;;;;2.83;0.90;;;6.40;99.90;;;;;;4980206;28;20026;-88
2024/02/26 10:09:57;;;;;;;2.85;0.77;;;6.50;99.90;;;;;;4981190;28;20053;-91
2024/02/26 10:12:25;;;;;;;1.63;0.85;;;6.60;99.90;;;;;;4979772;28;20061;-89
2024/02/26 10:14:51;;;;;;;3.13;0.80;;;6.80;99.90;;;;;;4977487;28;20018;-90
2024/02/26 10:17:19;;;;;;;1.83;0.60;;;7.00;99.90;;;;;;4976076;28;20113;-91
2024/02/26 10:19:44;;;;;;;3.67;0.70;;;7.20;99.90;;;;;;4978207;28;20026;-90
2024/02/26 10:22:10;;;;;;;1.65;0.50;;;7.40;99.90;;;;;;4973070;28;20030;-92
2024/02/26 10:24:36;;;;;;;2.28;0.70;;;7.50;99.90;;;;;;4977483;28;20022;-90
2024/02/26 10:27:02;;;;;;;3.65;0.68;;;7.60;99.90;;;;;;4977263;28;20027;-92
2024/02/26 10:29:28;;;;;;;2.42;0.70;;;7.80;99.90;;;;;;4976808;28;20030;-92
2024/02/26 10:31:54;;;;;;;4.43;0.80;;;7.90;99.90;;;;;;4972076;28;20495;-89
2024/02/26 10:34:20;;;;;;;3.50;1.02;;;8.00;99.90;;;;;;4975982;28;20031;-91
2024/02/26 10:36:46;;;;;;;1.55;0.80;;;7.90;99.90;;;;;;4974616;28;20027;-90
2024/02/26 10:39:13;;;;;;;4.45;0.77;;;7.90;99.90;;;;;;4976657;28;20025;-90
2024/02/26 10:41:43;;;;;;;3.72;0.90;;;7.90;99.90;;;;;;4976842;28;20365;-88
2024/02/26 10:44:10;;;;;;;2.53;0.75;;;7.90;99.90;;;;;;4977023;28;20023;-89
2024/02/26 10:46:37;;;;;;;4.45;1.00;;;7.90;99.90;;;;;;4972469;28;20050;-90
2024/02/26 10:49:06;;;;;;;2.17;0.88;;;7.80;99.90;;;;;;4976663;28;20065;-91
2024/02/26 10:51:33;;;;;;;5.95;1.15;;;7.70;99.90;;;;;;4975715;28;20030;-92
2024/02/26 10:54:02;;;;;;;2.38;0.80;;;7.60;99.90;;;;;;4975908;28;20107;-90
2024/02/26 10:56:29;;;;;;;4.82;1.23;;;7.50;99.90;;;;;;4972754;28;20026;-89
2024/02/26 10:58:59;;;;;;;5.45;0.93;;;7.30;99.90;;;;;;4975805;28;20018;-91
2024/02/26 11:01:26;;;;;;;2.15;1.35;;;7.30;99.90;;;;;;4975902;28;20506;-89
2024/02/26 11:03:53;;;;;;;5.63;1.10;;;7.30;99.90;;;;;;4975786;28;20029;-90
2024/02/26 11:06:23;;;;;;;8.25;1.50;;;7.20;99.90;;;;;;4970151;28;20389;-90
2024/02/26 11:08:50;;;;;;;5.55;1.30;;;7.10;99.90;;;;;;4974626;28;20484;-90
2024/02/26 11:11:19;;;;;;;4.15;1.33;;;7.00;99.90;;;;;;4975709;28;20037;-89
2024/02/26 11:13:50;;;;;;;5.57;1.30;;;7.00;99.90;;;;;;4975839;28;20030;-91
2024/02/26 11:16:21;;;;;;;7.97;1.10;;;7.00;99.90;;;;;;4974480;28;20030;-88
2024/02/26 11:18:48;;;;;;;6.85;1.27;;;7.00;99.90;;;;;;4973085;28;20034;-89
2024/02/26 11:21:27;;;;;;;9.10;1.73;;;7.00;99.90;;;;;;4975572;28;20053;-90
2024/02/26 11:23:54;;;;;;;6.50;1.50;;;6.90;99.90;;;;;;4976871;28;20034;-90
2024/02/26 11:26:22;;;;;;;6.00;1.20;;;7.00;99.90;;;;;;4977608;28;20468;-91
2024/02/26 11:28:49;;;;;;;3.70;0.80;;;7.00;99.90;;;;;;4975313;28;20036;-91
2024/02/26 11:31:15;;;;;;;7.53;0.95;;;7.10;99.90;;;;;;4974274;28;20041;-90
2024/02/26 11:33:41;;;;;;;6.65;1.20;;;7.10;99.90;;;;;;4974831;28;20113;-90
2024/02/26 11:36:11;;;;;;;5.70;1.35;;;7.50;99.90;;;;;;4975976;28;20038;-89
2024/02/26 11:38:37;;;;;;;4.65;1.00;;;8.00;99.90;;;;;;4976480;28;20046;-90
2024/02/26 11:41:07;;;;;;;5.00;1.00;;;8.60;99.90;;;;;;4975283;28;20085;-89
2024/02/26 11:43:53;;;;;;;3.40;0.70;;;9.10;99.90;;;;;;4975114;28;20057;-89
2024/02/26 11:46:30;;;;;;;3.10;0.75;;;9.30;99.90;;;;;;4969187;28;20049;-89
2024/02/26 11:49:23;;;;;;;2.63;0.90;;;9.20;99.90;;;;;;4990560;28;20026;-90
2024/02/26 11:51:52;;;;;;;4.55;0.95;;;9.10;99.90;;;;;;4972730;28;20134;-91
2024/02/26 11:54:42;;;;;;;1.70;0.52;;;9.40;99.90;;;;;;4975564;28;20468;-89
2024/02/26 11:57:28;;;;;;;3.83;0.80;;;9.50;99.90;;;;;;4972325;28;20044;-90
2024/02/26 12:00:06;;;;;;;5.28;0.98;;;9.70;99.90;;;;;;4974025;28;20340;-90
2024/02/26 12:02:45;;;;;;;5.55;0.80;;;10.00;99.90;;;;;;4970549;28;20476;-90
2024/02/26 12:05:23;;;;;;;3.03;0.73;;;10.40;99.90;;;;;;4976323;28;20027;-89
2024/02/26 12:08:07;;;;;;;6.00;1.00;;;10.80;99.90;;;;;;4965971;28;20532;-92
2024/02/26 12:10:38;;;;;;;2.95;0.70;;;11.00;99.90;;;;;;4968992;28;20374;-90
2024/02/26 12:13:16;;;;;;;;;;;11.20;99.90;;;;;;4964106;28;20027;-89
2024/02/26 12:15:55;;;;;;;3.33;0.73;;;11.50;99.90;;;;;;4986949;28;19913;-89
2024/02/26 12:18:22;;;;;;;3.63;0.80;;;11.50;98.80;;;;;;4957881;28;20018;-88
2024/02/26 12:21:13;;;;;;;3.13;0.68;;;11.20;96.80;;;;;;4958195;28;20059;-90
2024/02/26 12:23:39;;;;;;;6.60;0.75;;;11.00;97.40;;;;;;4994237;28;20030;-90
2024/02/26 12:26:05;;;;;;;8.48;0.90;;;10.80;97.80;;;;;;4977212;28;20026;-90
2024/02/26 12:28:31;;;;;;;5.63;0.80;;;10.70;97.50;;;;;;4978735;28;20037;-89
2024/02/26 12:30:59;;;;;;;3.60;0.60;;;10.70;98.30;;;;;;4977357;28;20499;-89
2024/02/26 12:33:26;;;;;;;2.30;0.47;;;10.80;98.30;;;;;;4978266;28;20408;-89
2024/02/26 12:35:53;;;;;;;1.92;0.50;;;10.90;96.90;;;;;;4973943;28;20027;-90
2024/02/26 12:38:18;;;;;;;3.78;0.70;;;10.70;96.40;;;;;;4978472;28;20026;-89
2024/02/26 12:40:45;;;;;;;2.75;0.52;;;10.60;96.60;;;;;;4980728;28;20037;-89
2024/02/26 12:43:12;;;;;;;2.65;0.50;;;10.40;96.50;;;;;;4979086;28;20117;-89
2024/02/26 12:45:45;;;;;;;4.38;0.60;;;10.10;96.70;;;;;;4978314;28;20623;-89
2024/02/26 12:48:12;;;;;;;1.85;0.80;;;9.90;97.00;;;;;;4967372;28;20037;-90
2024/02/26 12:50:37;;;;;;;3.33;0.30;;;9.50;97.20;;;;;;4978676;28;20030;-89
2024/02/26 12:53:03;;;;;;;1.30;0.40;;;9.30;97.00;;;;;;4973056;28;20041;-90